createdAt,value
2019-03-08T00:00:52.614Z,9.48
2019-03-08T00:03:19.184Z,8.23
2019-03-08T00:05:45.755Z,7.97
2019-03-08T00:08:12.335Z,7.62
2019-03-08T00:10:38.914Z,12.60
2019-03-08T00:13:05.568Z,6.95
2019-03-08T00:15:32.415Z,8.83
2019-03-08T00:17:58.987Z,8.70
2019-03-08T00:20:25.566Z,11.08
2019-03-08T00:22:52.153Z,7.30
2019-03-08T00:25:18.792Z,7.95
2019-03-08T00:27:45.374Z,6.25
2019-03-08T00:30:11.953Z,5.00
2019-03-08T00:32:38.545Z,6.15
2019-03-08T00:35:05.109Z,6.40
2019-03-08T00:37:31.681Z,7.30
2019-03-08T00:39:58.280Z,6.00
2019-03-08T00:42:24.856Z,5.12
2019-03-08T00:44:51.444Z,5.47
2019-03-08T00:47:18.051Z,4.50
2019-03-08T00:49:44.659Z,5.67
2019-03-08T00:52:11.472Z,6.60
2019-03-08T00:54:38.098Z,4.55
2019-03-08T00:57:04.690Z,6.72
2019-03-08T00:59:31.271Z,5.58
2019-03-08T01:01:57.888Z,6.25
2019-03-08T01:04:24.465Z,7.40
2019-03-08T01:06:51.035Z,5.83
2019-03-08T01:09:17.989Z,7.00
2019-03-08T01:11:45.338Z,13.72
2019-03-08T01:14:12.127Z,11.33
2019-03-08T01:16:38.699Z,13.93
2019-03-08T01:19:05.350Z,10.53
2019-03-08T01:21:31.923Z,13.15
2019-03-08T01:23:58.512Z,8.90
2019-03-08T01:26:25.367Z,7.40
2019-03-08T01:28:51.960Z,8.03
2019-03-08T01:31:18.528Z,8.93
2019-03-08T01:33:45.145Z,9.25
2019-03-08T01:36:11.718Z,6.97
2019-03-08T01:38:38.331Z,5.95
2019-03-08T01:41:04.909Z,6.53
2019-03-08T01:43:31.924Z,5.92
2019-03-08T01:45:58.507Z,10.55
2019-03-08T01:48:25.107Z,9.13
2019-03-08T01:50:51.686Z,7.53
2019-03-08T01:53:18.291Z,9.80
2019-03-08T01:55:44.858Z,9.40
2019-03-08T01:58:11.464Z,8.78
2019-03-08T02:00:38.043Z,7.50
2019-03-08T02:03:04.654Z,8.15
2019-03-08T02:05:31.232Z,6.70
2019-03-08T02:07:57.846Z,8.20
2019-03-08T02:10:24.424Z,7.53
2019-03-08T02:12:51.013Z,7.05
2019-03-08T02:15:17.589Z,7.15
2019-03-08T02:17:44.207Z,7.83
2019-03-08T02:20:10.781Z,6.90
2019-03-08T02:22:37.395Z,6.30
2019-03-08T02:25:03.964Z,8.43
2019-03-08T02:27:30.582Z,10.15
2019-03-08T02:29:57.151Z,13.70
2019-03-08T02:32:23.716Z,8.13
2019-03-08T02:34:50.292Z,13.18
2019-03-08T02:37:17.155Z,7.72
2019-03-08T02:39:43.736Z,9.33
2019-03-08T02:42:10.300Z,9.95
2019-03-08T02:44:36.880Z,7.40
2019-03-08T02:47:03.450Z,6.90
2019-03-08T02:49:30.218Z,10.95
2019-03-08T02:51:56.798Z,7.30
2019-03-08T02:54:23.662Z,7.30
2019-03-08T02:56:50.230Z,8.30
2019-03-08T02:59:16.816Z,8.33
2019-03-08T03:01:43.378Z,7.47
2019-03-08T03:04:09.957Z,6.47
2019-03-08T03:06:36.525Z,6.70
2019-03-08T03:09:03.124Z,6.33
2019-03-08T03:11:29.952Z,6.45
2019-03-08T03:13:56.573Z,4.72
2019-03-08T03:16:23.153Z,6.37
2019-03-08T03:18:49.799Z,4.33
2019-03-08T03:21:16.382Z,8.88
2019-03-08T03:23:42.950Z,5.70
2019-03-08T03:26:09.532Z,5.30
2019-03-08T03:28:36.300Z,4.47
2019-03-08T03:31:02.880Z,5.17
2019-03-08T03:33:29.599Z,3.77
2019-03-08T03:35:56.226Z,5.78
2019-03-08T03:38:22.828Z,5.08
2019-03-08T03:40:49.476Z,4.35
2019-03-08T03:43:16.080Z,4.28
2019-03-08T03:45:42.647Z,6.50
2019-03-08T03:48:09.268Z,3.27
2019-03-08T03:50:35.841Z,2.60
2019-03-08T03:53:02.440Z,3.98
2019-03-08T03:55:29.144Z,4.90
2019-03-08T03:57:55.721Z,2.47
2019-03-08T04:00:22.319Z,2.90
2019-03-08T04:02:48.887Z,2.95
2019-03-08T04:05:15.500Z,4.75
2019-03-08T04:07:42.069Z,1.82
2019-03-08T04:10:08.671Z,2.05
2019-03-08T04:12:35.243Z,2.37
2019-03-08T04:15:01.886Z,2.10
2019-03-08T04:17:28.522Z,2.05
2019-03-08T04:19:55.198Z,2.22
2019-03-08T04:22:22.054Z,2.05
2019-03-08T04:24:48.667Z,2.77
2019-03-08T04:27:15.235Z,2.70
2019-03-08T04:29:41.852Z,2.50
2019-03-08T04:32:08.428Z,4.55
2019-03-08T04:34:35.041Z,2.25
2019-03-08T04:37:01.618Z,1.90
2019-03-08T04:39:28.392Z,2.33
2019-03-08T04:41:54.969Z,2.12
2019-03-08T04:44:21.555Z,2.40
2019-03-08T04:46:48.154Z,2.05
2019-03-08T04:49:14.813Z,2.08
2019-03-08T04:51:41.411Z,3.47
2019-03-08T04:54:08.066Z,2.87
2019-03-08T04:56:35.021Z,2.05
2019-03-08T04:59:01.613Z,3.17
2019-03-08T05:01:28.220Z,2.77
2019-03-08T05:03:54.909Z,2.35
2019-03-08T05:06:21.489Z,3.40
2019-03-08T05:08:48.181Z,2.47
2019-03-08T05:11:14.753Z,4.58
2019-03-08T05:13:41.355Z,3.25
2019-03-08T05:16:07.935Z,4.00
2019-03-08T05:18:34.543Z,4.00
2019-03-08T05:21:01.122Z,3.12
2019-03-08T05:23:27.690Z,3.15
2019-03-08T05:25:54.263Z,3.60
2019-03-08T05:28:20.928Z,4.28
2019-03-08T05:30:47.524Z,5.20
2019-03-08T05:33:14.461Z,8.38
2019-03-08T05:35:41.040Z,12.25
2019-03-08T05:38:07.608Z,14.25
2019-03-08T05:40:34.183Z,9.85
2019-03-08T05:43:00.766Z,20.88
2019-03-08T05:45:27.342Z,12.70
2019-03-08T05:47:53.926Z,16.07
2019-03-08T05:50:20.774Z,15.93
2019-03-08T05:52:47.351Z,18.05
2019-03-08T05:55:13.926Z,20.92
2019-03-08T05:57:40.502Z,16.42
2019-03-08T06:00:07.106Z,14.13
2019-03-08T06:02:33.675Z,10.85
2019-03-08T06:05:00.400Z,9.83
2019-03-08T06:07:26.990Z,10.35
2019-03-08T06:09:53.993Z,6.53
2019-03-08T06:12:20.578Z,8.88
2019-03-08T06:14:47.171Z,7.72
2019-03-08T06:17:13.759Z,7.28
2019-03-08T06:19:40.396Z,6.22
2019-03-08T06:22:06.963Z,7.20
2019-03-08T06:24:33.556Z,5.50
2019-03-08T06:27:00.129Z,4.85
2019-03-08T06:29:27.005Z,4.00
2019-03-08T06:31:54.638Z,7.60
2019-03-08T06:34:21.258Z,3.72
2019-03-08T06:36:48.012Z,5.42
2019-03-08T06:39:14.601Z,7.33
2019-03-08T06:41:41.176Z,7.30
2019-03-08T06:44:07.774Z,7.78
2019-03-08T06:46:34.730Z,8.35
2019-03-08T06:49:01.313Z,10.58
2019-03-08T06:51:27.963Z,6.75
2019-03-08T06:53:54.545Z,5.80
2019-03-08T06:56:21.114Z,6.75
2019-03-08T06:58:47.684Z,6.47
2019-03-08T07:01:14.260Z,8.15
2019-03-08T07:03:40.838Z,6.65
2019-03-08T07:06:07.431Z,5.65
2019-03-08T07:08:34.067Z,10.32
2019-03-08T07:11:00.657Z,7.00
2019-03-08T07:13:28.136Z,3.85
2019-03-08T07:15:54.792Z,2.70
2019-03-08T07:18:21.373Z,4.45
2019-03-08T07:20:47.962Z,2.62
2019-03-08T07:23:14.909Z,4.78
2019-03-08T07:25:50.955Z,4.92
2019-03-08T07:28:10.505Z,5.05
2019-03-08T07:30:37.105Z,6.95
2019-03-08T07:33:03.680Z,6.87
2019-03-08T07:35:30.247Z,10.48
2019-03-08T07:37:56.834Z,3.80
2019-03-08T07:40:23.692Z,8.48
2019-03-08T07:42:50.279Z,7.47
2019-03-08T07:45:16.935Z,7.45
2019-03-08T07:47:43.576Z,2.67
2019-03-08T07:50:10.218Z,5.75
2019-03-08T07:52:36.824Z,17.23
2019-03-08T07:55:03.402Z,5.58
2019-03-08T07:57:29.996Z,6.42
2019-03-08T07:59:56.573Z,4.92
2019-03-08T08:02:23.148Z,12.60
2019-03-08T08:04:49.725Z,10.10
2019-03-08T08:07:16.305Z,7.58
2019-03-08T08:09:42.918Z,8.70
2019-03-08T08:12:09.496Z,4.20
2019-03-08T08:14:39.645Z,3.52
2019-03-08T08:17:04.394Z,6.00
2019-03-08T08:19:31.055Z,6.37
2019-03-08T08:21:57.651Z,6.10
2019-03-08T08:24:24.261Z,3.25
2019-03-08T08:26:50.827Z,5.03
2019-03-08T08:29:17.397Z,7.17
2019-03-08T08:31:44.264Z,5.25
2019-03-08T08:34:10.866Z,7.83
2019-03-08T08:36:37.476Z,8.23
2019-03-08T08:39:04.079Z,5.42
2019-03-08T08:41:30.684Z,11.70
2019-03-08T08:43:57.266Z,5.03
2019-03-08T08:46:24.524Z,4.97
2019-03-08T08:48:51.091Z,4.85
2019-03-08T08:51:17.715Z,6.45
2019-03-08T08:53:44.352Z,3.45
2019-03-08T08:56:10.930Z,9.13
2019-03-08T08:58:37.538Z,5.83
2019-03-08T09:01:04.107Z,9.00
2019-03-08T09:03:30.733Z,12.40
2019-03-08T09:05:57.312Z,6.87
2019-03-08T09:08:24.101Z,6.83
2019-03-08T09:10:50.673Z,5.53
2019-03-08T09:13:17.465Z,9.78
2019-03-08T09:15:44.043Z,7.65
2019-03-08T09:18:10.646Z,6.70
2019-03-08T09:20:37.236Z,3.05
2019-03-08T09:23:03.812Z,6.25
2019-03-08T09:25:30.573Z,10.75
2019-03-08T09:27:57.153Z,6.87
2019-03-08T09:30:23.722Z,6.80
2019-03-08T09:32:58.919Z,5.67
2019-03-08T09:35:18.648Z,4.47
2019-03-08T09:37:45.217Z,5.70
2019-03-08T09:40:12.395Z,9.78
2019-03-08T09:42:39.346Z,3.65
2019-03-08T09:45:05.976Z,2.17
2019-03-08T09:47:32.626Z,11.12
2019-03-08T09:49:59.283Z,3.87
2019-03-08T09:52:25.924Z,4.15
2019-03-08T09:54:52.490Z,4.25
2019-03-08T09:57:19.075Z,4.83
2019-03-08T09:59:46.019Z,3.40
2019-03-08T10:02:12.599Z,2.00
2019-03-08T10:04:39.184Z,6.60
2019-03-08T10:07:05.795Z,3.55
2019-03-08T10:09:32.434Z,4.42
2019-03-08T10:11:59.046Z,4.53
2019-03-08T10:14:25.651Z,3.05
2019-03-08T10:16:52.500Z,2.98
2019-03-08T10:19:19.076Z,3.83
2019-03-08T10:21:45.654Z,4.37
2019-03-08T10:24:12.253Z,5.03
2019-03-08T10:26:38.832Z,2.60
2019-03-08T10:29:05.424Z,3.47
2019-03-08T10:31:32.009Z,5.72
2019-03-08T10:33:58.617Z,3.60
2019-03-08T10:36:25.182Z,4.50
2019-03-08T10:38:51.821Z,5.78
2019-03-08T10:41:18.407Z,3.60
2019-03-08T10:43:44.981Z,1.45
2019-03-08T10:46:15.799Z,1.57
2019-03-08T10:48:40.004Z,2.85
2019-03-08T10:51:06.590Z,1.20
2019-03-08T10:53:33.245Z,1.45
2019-03-08T10:55:59.863Z,8.15
2019-03-08T10:58:26.443Z,2.50
2019-03-08T11:00:53.040Z,3.17
2019-03-08T11:03:19.614Z,4.45
2019-03-08T11:05:46.226Z,2.17
2019-03-08T11:08:12.970Z,2.55
2019-03-08T11:10:40.677Z,5.72
2019-03-08T11:13:07.264Z,3.12
2019-03-08T11:15:33.831Z,4.03
2019-03-08T11:18:00.500Z,3.75
2019-03-08T11:20:27.080Z,2.83
2019-03-08T11:22:53.661Z,2.08
2019-03-08T11:25:20.226Z,2.55
2019-03-08T11:27:47.111Z,5.22
2019-03-08T11:30:13.697Z,2.98
2019-03-08T11:32:40.318Z,5.22
2019-03-08T11:35:06.896Z,2.60
2019-03-08T11:37:33.550Z,0.82
2019-03-08T11:40:00.186Z,1.25
2019-03-08T11:42:26.911Z,1.75
2019-03-08T11:44:53.878Z,1.62
2019-03-08T11:47:20.465Z,1.50
2019-03-08T11:49:47.057Z,3.35
2019-03-08T11:52:15.652Z,2.08
2019-03-08T11:54:42.255Z,1.30
2019-03-08T11:57:08.865Z,1.92
2019-03-08T11:59:35.495Z,2.62
2019-03-08T12:02:02.347Z,3.15
2019-03-08T12:04:28.977Z,1.47
2019-03-08T12:06:55.564Z,3.87
2019-03-08T12:09:22.136Z,4.10
2019-03-08T12:11:48.722Z,2.60
2019-03-08T12:14:15.293Z,2.60
2019-03-08T12:16:41.917Z,4.58
2019-03-08T12:19:08.773Z,1.92
2019-03-08T12:21:35.359Z,6.83
2019-03-08T12:24:01.934Z,2.02
2019-03-08T12:26:28.579Z,4.03
2019-03-08T12:28:55.303Z,2.58
2019-03-08T12:31:21.871Z,5.78
2019-03-08T12:33:48.495Z,2.90
2019-03-08T12:36:15.346Z,3.25
2019-03-08T12:38:41.938Z,3.75
2019-03-08T12:41:08.511Z,11.63
2019-03-08T12:43:35.136Z,48.08
2019-03-08T12:46:01.705Z,2.27
2019-03-08T12:48:28.302Z,2.98
2019-03-08T12:50:54.878Z,2.72
2019-03-08T12:53:21.898Z,3.30
2019-03-08T12:55:48.566Z,11.88
2019-03-08T12:58:15.240Z,3.60
2019-03-08T13:00:41.803Z,1.80
2019-03-08T13:03:08.391Z,6.45
2019-03-08T13:05:34.978Z,2.37
2019-03-08T13:08:01.552Z,1.45
2019-03-08T13:10:28.467Z,1.65
2019-03-08T13:12:55.068Z,2.15
2019-03-08T13:15:21.722Z,1.25
2019-03-08T13:17:48.333Z,1.60
2019-03-08T13:20:14.934Z,3.77
2019-03-08T13:22:41.510Z,3.30
2019-03-08T13:25:08.104Z,2.17
2019-03-08T13:27:35.069Z,1.82
2019-03-08T13:30:01.684Z,1.57
2019-03-08T13:32:28.309Z,1.17
2019-03-08T13:34:54.947Z,1.57
2019-03-08T13:37:21.514Z,2.30
2019-03-08T13:39:48.139Z,3.67
2019-03-08T13:42:14.703Z,3.75
2019-03-08T13:44:41.366Z,2.25
2019-03-08T13:47:07.991Z,2.67
2019-03-08T13:49:34.599Z,2.92
2019-03-08T13:52:01.170Z,4.12
2019-03-08T13:54:27.789Z,1.32
2019-03-08T13:56:54.430Z,2.30
2019-03-08T13:59:21.114Z,6.75
2019-03-08T14:01:47.696Z,7.65
2019-03-08T14:04:14.263Z,2.35
2019-03-08T14:06:40.845Z,21.23
2019-03-08T14:09:07.407Z,1.57
2019-03-08T14:11:33.988Z,2.85
2019-03-08T14:14:00.563Z,2.20
2019-03-08T14:16:27.132Z,1.77
2019-03-08T14:18:53.712Z,3.02
2019-03-08T14:21:20.462Z,4.40
2019-03-08T14:23:47.047Z,2.37
2019-03-08T14:26:13.627Z,2.75
2019-03-08T14:28:40.294Z,3.37
2019-03-08T14:31:08.869Z,2.02
2019-03-08T14:33:38.202Z,3.62
2019-03-08T14:36:06.082Z,2.58
2019-03-08T14:38:32.888Z,6.05
2019-03-08T14:40:59.530Z,3.10
2019-03-08T14:43:26.098Z,2.10
2019-03-08T14:45:52.715Z,3.00
2019-03-08T14:48:19.281Z,4.58
2019-03-08T14:50:45.876Z,2.70
2019-03-08T14:53:12.714Z,4.78
2019-03-08T14:55:39.332Z,1.95
2019-03-08T14:58:05.900Z,3.98
2019-03-08T15:00:32.512Z,6.12
2019-03-08T15:02:59.085Z,5.85
2019-03-08T15:05:25.683Z,4.37
2019-03-08T15:07:52.256Z,2.33
2019-03-08T15:10:18.914Z,7.95
2019-03-08T15:12:48.861Z,3.92
2019-03-08T15:15:13.889Z,5.00
2019-03-08T15:17:40.440Z,7.10
2019-03-08T15:20:14.930Z,3.00
2019-03-08T15:22:38.051Z,6.87
2019-03-08T15:25:03.610Z,6.17
2019-03-08T15:27:30.246Z,10.23
2019-03-08T15:29:56.828Z,5.92
2019-03-08T15:32:23.422Z,4.95
2019-03-08T15:34:50.021Z,6.90
2019-03-08T15:37:16.593Z,2.87
2019-03-08T15:39:43.163Z,3.85
2019-03-08T15:42:09.762Z,5.42
2019-03-08T15:44:36.339Z,5.95
2019-03-08T15:47:02.945Z,2.58
2019-03-08T15:49:30.590Z,5.33
2019-03-08T15:51:59.837Z,4.58
2019-03-08T15:54:26.156Z,4.30
2019-03-08T15:56:52.761Z,4.53
2019-03-08T15:59:19.341Z,6.33
2019-03-08T16:01:45.941Z,6.78
2019-03-08T16:04:13.083Z,5.00
2019-03-08T16:06:44.007Z,5.50
2019-03-08T16:09:08.435Z,5.25
2019-03-08T16:11:35.325Z,9.53
2019-03-08T16:14:08.840Z,6.22
2019-03-08T16:16:30.254Z,9.38
2019-03-08T16:18:56.821Z,7.92
2019-03-08T16:21:24.908Z,7.12
2019-03-08T16:23:51.866Z,11.22
2019-03-08T16:26:21.274Z,11.90
2019-03-08T16:28:47.277Z,10.75
2019-03-08T16:31:14.097Z,10.13
2019-03-08T16:33:40.688Z,11.53
2019-03-08T16:36:07.242Z,17.30
2019-03-08T16:38:33.861Z,12.03
2019-03-08T16:41:00.710Z,16.35
2019-03-08T16:43:27.478Z,14.10
2019-03-08T16:45:54.846Z,9.95
2019-03-08T16:48:22.380Z,9.58
2019-03-08T16:50:48.968Z,11.63
2019-03-08T16:53:15.571Z,10.15
2019-03-08T16:55:42.414Z,10.78
2019-03-08T16:58:09.017Z,13.22
2019-03-08T17:00:35.592Z,9.98
2019-03-08T17:03:02.210Z,8.65
2019-03-08T17:05:37.596Z,11.40
2019-03-08T17:08:04.218Z,14.90
2019-03-08T17:10:30.799Z,13.35
2019-03-08T17:12:57.379Z,20.85
2019-03-08T17:15:23.970Z,24.23
2019-03-08T17:17:50.553Z,18.75
2019-03-08T17:20:17.167Z,16.07
2019-03-08T17:22:43.749Z,17.27
2019-03-08T17:25:10.427Z,21.93
2019-03-08T17:27:39.855Z,26.30
2019-03-08T17:30:06.448Z,32.73
2019-03-08T17:32:33.034Z,34.65
2019-03-08T17:34:59.754Z,43.28
2019-03-08T17:37:26.355Z,24.27
2019-03-08T17:39:53.307Z,31.07
2019-03-08T17:42:19.896Z,28.27
2019-03-08T17:44:46.471Z,36.23
2019-03-08T17:47:13.076Z,28.42
2019-03-08T17:49:39.653Z,27.02
2019-03-08T17:52:06.260Z,21.82
2019-03-08T17:54:32.846Z,23.35
2019-03-08T17:56:59.447Z,23.05
2019-03-08T17:59:26.031Z,27.37
2019-03-08T18:01:52.649Z,28.87
2019-03-08T18:04:19.254Z,30.75
2019-03-08T18:06:45.837Z,33.58
2019-03-08T18:09:12.417Z,32.90
2019-03-08T18:11:39.015Z,31.20
2019-03-08T18:14:05.609Z,26.30
2019-03-08T18:16:32.174Z,26.70
2019-03-08T18:18:58.791Z,18.48
2019-03-08T18:21:25.370Z,27.77
2019-03-08T18:23:51.994Z,25.62
2019-03-08T18:26:18.843Z,25.97
2019-03-08T18:28:45.465Z,24.77
2019-03-08T18:31:12.113Z,20.20
2019-03-08T18:33:38.690Z,27.02
2019-03-08T18:36:05.267Z,34.78
2019-03-08T18:38:31.843Z,42.98
2019-03-08T18:40:58.705Z,35.48
2019-03-08T18:43:25.276Z,29.10
2019-03-08T18:45:51.895Z,25.68
2019-03-08T18:48:18.477Z,28.38
2019-03-08T18:50:45.070Z,21.97
2019-03-08T18:53:11.654Z,22.85
2019-03-08T18:55:38.415Z,18.70
2019-03-08T18:58:04.986Z,21.75
2019-03-08T19:00:31.556Z,20.05
2019-03-08T19:02:58.128Z,17.73
2019-03-08T19:05:24.736Z,18.90
2019-03-08T19:07:51.309Z,26.85
2019-03-08T19:10:17.889Z,21.97
2019-03-08T19:12:44.548Z,23.47
2019-03-08T19:15:11.215Z,23.65
2019-03-08T19:17:37.856Z,17.00
2019-03-08T19:20:04.435Z,19.02
2019-03-08T19:22:31.559Z,24.70
2019-03-08T19:24:58.283Z,22.93
2019-03-08T19:27:25.127Z,22.37
2019-03-08T19:29:51.766Z,13.62
2019-03-08T19:32:18.400Z,20.43
2019-03-08T19:34:44.999Z,22.70
2019-03-08T19:37:11.576Z,20.23
2019-03-08T19:39:38.176Z,21.65
2019-03-08T19:42:05.042Z,18.65
2019-03-08T19:44:31.784Z,19.85
2019-03-08T19:46:58.359Z,22.32
2019-03-08T19:49:24.970Z,19.60
2019-03-08T19:51:51.545Z,20.23
2019-03-08T19:54:18.139Z,20.23
2019-03-08T19:56:44.737Z,20.20
2019-03-08T19:59:11.312Z,16.32
2019-03-08T20:01:37.916Z,19.20
2019-03-08T20:04:04.495Z,20.02
2019-03-08T20:06:31.118Z,23.35
2019-03-08T20:08:57.689Z,23.12
2019-03-08T20:11:24.286Z,35.85
2019-03-08T20:13:51.040Z,32.30
2019-03-08T20:16:17.650Z,40.43
2019-03-08T20:18:44.234Z,43.25
2019-03-08T20:21:10.873Z,31.60
2019-03-08T20:23:37.448Z,31.45
2019-03-08T20:26:04.031Z,31.77
2019-03-08T20:28:30.894Z,37.13
2019-03-08T20:30:57.471Z,31.27
2019-03-08T20:33:24.093Z,22.73
2019-03-08T20:35:50.661Z,24.75
2019-03-08T20:38:17.275Z,20.52
2019-03-08T20:40:43.841Z,19.70
2019-03-08T20:43:10.463Z,20.80
2019-03-08T20:45:37.045Z,18.87
2019-03-08T20:48:03.679Z,18.92
2019-03-08T20:50:30.266Z,22.50
2019-03-08T20:52:56.864Z,28.05
2019-03-08T20:55:23.442Z,28.85
2019-03-08T20:57:50.037Z,27.25
2019-03-08T21:00:16.800Z,27.70
2019-03-08T21:02:43.408Z,30.43
2019-03-08T21:05:09.979Z,19.27
2019-03-08T21:07:36.564Z,23.32
2019-03-08T21:10:03.144Z,21.62
2019-03-08T21:12:29.728Z,20.95
2019-03-08T21:14:56.309Z,24.40
2019-03-08T21:17:22.892Z,20.23
2019-03-08T21:19:49.506Z,18.55
2019-03-08T21:22:16.757Z,23.98
2019-03-08T21:24:43.323Z,20.30
2019-03-08T21:27:09.899Z,20.32
2019-03-08T21:29:36.469Z,16.23
2019-03-08T21:32:03.217Z,17.52
2019-03-08T21:34:29.799Z,14.60
2019-03-08T21:36:56.375Z,14.40
2019-03-08T21:39:22.947Z,15.72
2019-03-08T21:41:49.519Z,17.52
2019-03-08T21:44:16.094Z,14.70
2019-03-08T21:46:42.676Z,17.50
2019-03-08T21:49:09.265Z,16.87
2019-03-08T21:51:35.843Z,19.73
2019-03-08T21:54:02.734Z,15.13
2019-03-08T21:56:30.134Z,16.75
2019-03-08T21:58:56.706Z,13.62
2019-03-08T22:01:23.287Z,12.33
2019-03-08T22:03:50.141Z,12.68
2019-03-08T22:06:16.717Z,17.20
2019-03-08T22:08:43.291Z,15.93
2019-03-08T22:11:09.875Z,16.10
2019-03-08T22:13:37.385Z,15.18
2019-03-08T22:16:03.994Z,14.23
2019-03-08T22:18:30.944Z,15.18
2019-03-08T22:20:57.519Z,17.02
2019-03-08T22:23:24.101Z,17.70
2019-03-08T22:25:50.667Z,20.12
2019-03-08T22:28:17.285Z,15.08
2019-03-08T22:30:43.866Z,17.20
2019-03-08T22:33:10.443Z,15.70
2019-03-08T22:35:37.227Z,13.55
2019-03-08T22:38:03.814Z,13.20
2019-03-08T22:40:30.426Z,13.28
2019-03-08T22:42:57.008Z,23.25
2019-03-08T22:45:23.627Z,29.48
2019-03-08T22:47:50.207Z,27.62
2019-03-08T22:50:17.097Z,25.20
2019-03-08T22:52:43.667Z,20.40
2019-03-08T22:55:10.265Z,19.27
2019-03-08T22:57:36.832Z,21.27
2019-03-08T23:00:03.422Z,15.30
2019-03-08T23:02:29.998Z,22.60
2019-03-08T23:04:56.604Z,17.15
2019-03-08T23:07:23.256Z,20.45
2019-03-08T23:09:49.866Z,19.87
2019-03-08T23:12:16.436Z,22.50
2019-03-08T23:14:43.052Z,28.70
2019-03-08T23:17:09.626Z,23.00
2019-03-08T23:19:36.230Z,23.00
2019-03-08T23:22:03.082Z,26.65
2019-03-08T23:24:29.749Z,25.20
2019-03-08T23:26:56.315Z,29.12
2019-03-08T23:29:22.976Z,28.55
2019-03-08T23:31:49.565Z,29.42
2019-03-08T23:34:16.176Z,26.15
2019-03-08T23:36:42.754Z,25.97
2019-03-08T23:39:09.324Z,26.52
2019-03-08T23:41:35.911Z,27.73
2019-03-08T23:44:02.487Z,31.77
2019-03-08T23:46:29.144Z,29.70
2019-03-08T23:48:55.730Z,23.30
2019-03-08T23:51:22.305Z,23.40
2019-03-08T23:53:49.154Z,19.10
2019-03-08T23:56:15.725Z,17.50
2019-03-08T23:58:42.300Z,14.47
